sensor_id;sensor_type;location;lat;lon;timestamp;temperature;humidity
30047;DHT22;16878;52.542;13.426;2022-09-09T00:00:16;15.20;99.90
30047;DHT22;16878;52.542;13.426;2022-09-09T00:02:44;15.20;99.90
30047;DHT22;16878;52.542;13.426;2022-09-09T00:08:18;15.20;99.90
30047;DHT22;16878;52.542;13.426;2022-09-09T00:10:44;15.20;99.90
30047;DHT22;16878;52.542;13.426;2022-09-09T00:13:25;15.20;99.90
30047;DHT22;16878;52.542;13.426;2022-09-09T00:15:59;15.20;99.90
30047;DHT22;16878;52.542;13.426;2022-09-09T00:18:32;15.10;99.90
30047;DHT22;16878;52.542;13.426;2022-09-09T00:21:05;15.10;99.90
30047;DHT22;16878;52.542;13.426;2022-09-09T00:23:37;15.10;99.90
30047;DHT22;16878;52.542;13.426;2022-09-09T00:26:14;15.10;99.90
30047;DHT22;16878;52.542;13.426;2022-09-09T00:28:48;15.10;99.90
30047;DHT22;16878;52.542;13.426;2022-09-09T00:31:16;15.00;99.90
30047;DHT22;16878;52.542;13.426;2022-09-09T00:33:44;15.00;99.90
30047;DHT22;16878;52.542;13.426;2022-09-09T00:36:14;15.00;99.90
30047;DHT22;16878;52.542;13.426;2022-09-09T00:38:45;15.00;99.90
30047;DHT22;16878;52.542;13.426;2022-09-09T00:41:20;15.00;99.90
30047;DHT22;16878;52.542;13.426;2022-09-09T00:43:56;15.00;99.90
30047;DHT22;16878;52.542;13.426;2022-09-09T00:49:04;15.00;99.90
30047;DHT22;16878;52.542;13.426;2022-09-09T00:54:07;15.00;99.90
30047;DHT22;16878;52.542;13.426;2022-09-09T00:56:42;14.90;99.90
30047;DHT22;16878;52.542;13.426;2022-09-09T01:01:36;14.90;99.90
30047;DHT22;16878;52.542;13.426;2022-09-09T01:04:03;14.90;99.90
30047;DHT22;16878;52.542;13.426;2022-09-09T01:06:31;14.90;99.90
30047;DHT22;16878;52.542;13.426;2022-09-09T01:11:43;14.90;99.90
30047;DHT22;16878;52.542;13.426;2022-09-09T01:14:16;14.90;99.90
30047;DHT22;16878;52.542;13.426;2022-09-09T01:16:44;14.90;99.90
30047;DHT22;16878;52.542;13.426;2022-09-09T01:19:11;14.90;99.90
30047;DHT22;16878;52.542;13.426;2022-09-09T01:24:27;14.80;99.90
30047;DHT22;16878;52.542;13.426;2022-09-09T01:26:56;14.80;99.90
30047;DHT22;16878;52.542;13.426;2022-09-09T01:29:23;14.90;99.90
30047;DHT22;16878;52.542;13.426;2022-09-09T01:31:53;14.80;99.90
30047;DHT22;16878;52.542;13.426;2022-09-09T01:34:19;14.80;99.90
30047;DHT22;16878;52.542;13.426;2022-09-09T01:39:17;14.80;99.90
30047;DHT22;16878;52.542;13.426;2022-09-09T01:41:43;14.80;99.90
30047;DHT22;16878;52.542;13.426;2022-09-09T01:44:08;14.80;99.90
30047;DHT22;16878;52.542;13.426;2022-09-09T01:46:34;14.80;99.90
30047;DHT22;16878;52.542;13.426;2022-09-09T01:49:00;14.80;99.90
30047;DHT22;16878;52.542;13.426;2022-09-09T01:51:27;14.80;99.90
30047;DHT22;16878;52.542;13.426;2022-09-09T01:53:52;14.70;99.90
30047;DHT22;16878;52.542;13.426;2022-09-09T02:04:12;14.70;99.90
30047;DHT22;16878;52.542;13.426;2022-09-09T02:06:40;14.70;99.90
30047;DHT22;16878;52.542;13.426;2022-09-09T02:09:06;14.60;99.90
30047;DHT22;16878;52.542;13.426;2022-09-09T02:11:32;14.70;99.90
30047;DHT22;16878;52.542;13.426;2022-09-09T02:14:01;14.60;99.90
30047;DHT22;16878;52.542;13.426;2022-09-09T02:16:37;14.60;99.90
30047;DHT22;16878;52.542;13.426;2022-09-09T02:19:20;14.60;99.90
30047;DHT22;16878;52.542;13.426;2022-09-09T02:21:52;14.60;99.90
30047;DHT22;16878;52.542;13.426;2022-09-09T02:24:19;14.60;99.90
30047;DHT22;16878;52.542;13.426;2022-09-09T02:26:45;14.60;99.90
30047;DHT22;16878;52.542;13.426;2022-09-09T02:29:13;14.60;99.90
30047;DHT22;16878;52.542;13.426;2022-09-09T02:31:39;14.60;99.90
30047;DHT22;16878;52.542;13.426;2022-09-09T02:34:05;14.50;99.90
30047;DHT22;16878;52.542;13.426;2022-09-09T02:36:31;14.60;99.90
30047;DHT22;16878;52.542;13.426;2022-09-09T02:38:58;14.60;99.90
30047;DHT22;16878;52.542;13.426;2022-09-09T02:41:34;14.50;99.90
30047;DHT22;16878;52.542;13.426;2022-09-09T02:44:00;14.50;99.90
30047;DHT22;16878;52.542;13.426;2022-09-09T02:49:12;14.50;99.90
30047;DHT22;16878;52.542;13.426;2022-09-09T02:56:46;14.50;99.90
30047;DHT22;16878;52.542;13.426;2022-09-09T02:59:12;14.40;99.90
30047;DHT22;16878;52.542;13.426;2022-09-09T03:01:38;14.50;99.90
30047;DHT22;16878;52.542;13.426;2022-09-09T03:04:05;14.40;99.90
30047;DHT22;16878;52.542;13.426;2022-09-09T03:06:30;14.40;99.90
30047;DHT22;16878;52.542;13.426;2022-09-09T03:08:56;14.40;99.90
30047;DHT22;16878;52.542;13.426;2022-09-09T03:11:22;14.40;99.90
30047;DHT22;16878;52.542;13.426;2022-09-09T03:13:48;14.40;99.90
30047;DHT22;16878;52.542;13.426;2022-09-09T03:16:14;14.40;99.90
30047;DHT22;16878;52.542;13.426;2022-09-09T03:18:40;14.40;99.90
30047;DHT22;16878;52.542;13.426;2022-09-09T03:21:05;14.30;99.90
30047;DHT22;16878;52.542;13.426;2022-09-09T03:23:32;14.30;99.90
30047;DHT22;16878;52.542;13.426;2022-09-09T03:25:57;14.30;99.90
30047;DHT22;16878;52.542;13.426;2022-09-09T03:28:23;14.30;99.90
30047;DHT22;16878;52.542;13.426;2022-09-09T03:30:57;14.30;99.90
30047;DHT22;16878;52.542;13.426;2022-09-09T03:33:23;14.30;99.90
30047;DHT22;16878;52.542;13.426;2022-09-09T03:35:48;14.30;99.90
30047;DHT22;16878;52.542;13.426;2022-09-09T03:38:14;14.30;99.90
30047;DHT22;16878;52.542;13.426;2022-09-09T03:40:39;14.30;99.90
30047;DHT22;16878;52.542;13.426;2022-09-09T03:43:05;14.30;99.90
30047;DHT22;16878;52.542;13.426;2022-09-09T03:45:30;14.30;99.90
30047;DHT22;16878;52.542;13.426;2022-09-09T03:47:56;14.20;99.90
30047;DHT22;16878;52.542;13.426;2022-09-09T03:50:22;14.30;99.90
30047;DHT22;16878;52.542;13.426;2022-09-09T03:52:48;14.20;99.90
30047;DHT22;16878;52.542;13.426;2022-09-09T03:55:14;14.20;99.90
30047;DHT22;16878;52.542;13.426;2022-09-09T03:57:39;14.20;99.90
30047;DHT22;16878;52.542;13.426;2022-09-09T04:00:06;14.20;99.90
30047;DHT22;16878;52.542;13.426;2022-09-09T04:02:32;14.20;99.90
30047;DHT22;16878;52.542;13.426;2022-09-09T04:04:58;14.20;99.90
30047;DHT22;16878;52.542;13.426;2022-09-09T04:07:24;14.20;99.90
30047;DHT22;16878;52.542;13.426;2022-09-09T04:09:52;14.20;99.90
30047;DHT22;16878;52.542;13.426;2022-09-09T04:12:18;14.20;99.90
30047;DHT22;16878;52.542;13.426;2022-09-09T04:14:43;14.20;99.90
30047;DHT22;16878;52.542;13.426;2022-09-09T04:17:09;14.10;99.90
30047;DHT22;16878;52.542;13.426;2022-09-09T04:19:34;14.10;99.90
30047;DHT22;16878;52.542;13.426;2022-09-09T04:22:00;14.10;99.90
30047;DHT22;16878;52.542;13.426;2022-09-09T04:24:26;14.10;99.90
30047;DHT22;16878;52.542;13.426;2022-09-09T04:26:54;14.10;99.90
30047;DHT22;16878;52.542;13.426;2022-09-09T04:29:19;14.10;99.90
30047;DHT22;16878;52.542;13.426;2022-09-09T04:31:45;14.20;99.90
30047;DHT22;16878;52.542;13.426;2022-09-09T04:34:10;14.10;99.90
30047;DHT22;16878;52.542;13.426;2022-09-09T04:36:36;14.10;99.90
30047;DHT22;16878;52.542;13.426;2022-09-09T04:39:01;14.20;99.90
30047;DHT22;16878;52.542;13.426;2022-09-09T04:41:27;14.20;99.90
30047;DHT22;16878;52.542;13.426;2022-09-09T04:43:53;14.20;99.90
30047;DHT22;16878;52.542;13.426;2022-09-09T04:46:19;14.30;99.90
30047;DHT22;16878;52.542;13.426;2022-09-09T04:48:45;14.30;99.90
30047;DHT22;16878;52.542;13.426;2022-09-09T04:51:11;14.30;99.90
30047;DHT22;16878;52.542;13.426;2022-09-09T04:53:37;14.30;99.90
30047;DHT22;16878;52.542;13.426;2022-09-09T04:56:13;14.30;99.90
30047;DHT22;16878;52.542;13.426;2022-09-09T04:58:41;14.30;99.90
30047;DHT22;16878;52.542;13.426;2022-09-09T05:01:11;14.40;99.90
30047;DHT22;16878;52.542;13.426;2022-09-09T05:03:37;14.40;99.90
30047;DHT22;16878;52.542;13.426;2022-09-09T05:06:07;14.50;99.90
30047;DHT22;16878;52.542;13.426;2022-09-09T05:08:40;14.50;99.90
30047;DHT22;16878;52.542;13.426;2022-09-09T05:11:13;14.60;99.90
30047;DHT22;16878;52.542;13.426;2022-09-09T05:13:38;14.60;99.90
30047;DHT22;16878;52.542;13.426;2022-09-09T05:16:05;14.70;99.90
30047;DHT22;16878;52.542;13.426;2022-09-09T05:18:30;14.90;99.90
30047;DHT22;16878;52.542;13.426;2022-09-09T05:20:59;14.90;99.90
30047;DHT22;16878;52.542;13.426;2022-09-09T05:23:25;15.00;99.90
30047;DHT22;16878;52.542;13.426;2022-09-09T05:25:55;15.20;99.90
30047;DHT22;16878;52.542;13.426;2022-09-09T05:28:22;15.30;99.90
30047;DHT22;16878;52.542;13.426;2022-09-09T05:30:54;15.50;99.90
30047;DHT22;16878;52.542;13.426;2022-09-09T05:33:20;15.70;99.90
30047;DHT22;16878;52.542;13.426;2022-09-09T05:35:46;15.80;99.90
30047;DHT22;16878;52.542;13.426;2022-09-09T05:38:11;16.00;99.90
30047;DHT22;16878;52.542;13.426;2022-09-09T05:40:37;16.20;99.90
30047;DHT22;16878;52.542;13.426;2022-09-09T05:43:03;16.30;99.90
30047;DHT22;16878;52.542;13.426;2022-09-09T05:45:28;16.50;99.90
30047;DHT22;16878;52.542;13.426;2022-09-09T05:47:57;16.60;99.90
30047;DHT22;16878;52.542;13.426;2022-09-09T05:50:24;16.70;99.90
30047;DHT22;16878;52.542;13.426;2022-09-09T05:52:49;16.70;99.90
30047;DHT22;16878;52.542;13.426;2022-09-09T05:55:15;16.90;99.90
30047;DHT22;16878;52.542;13.426;2022-09-09T05:57:40;17.00;99.90
30047;DHT22;16878;52.542;13.426;2022-09-09T06:00:07;17.10;99.90
30047;DHT22;16878;52.542;13.426;2022-09-09T06:02:33;17.20;99.90
30047;DHT22;16878;52.542;13.426;2022-09-09T06:04:59;17.40;99.90
30047;DHT22;16878;52.542;13.426;2022-09-09T06:07:24;17.70;99.90
30047;DHT22;16878;52.542;13.426;2022-09-09T06:09:49;18.00;99.90
30047;DHT22;16878;52.542;13.426;2022-09-09T06:12:16;18.20;99.90
30047;DHT22;16878;52.542;13.426;2022-09-09T06:14:42;18.90;99.90
30047;DHT22;16878;52.542;13.426;2022-09-09T06:17:07;20.70;99.90
30047;DHT22;16878;52.542;13.426;2022-09-09T06:19:34;23.60;99.90
30047;DHT22;16878;52.542;13.426;2022-09-09T06:21:59;24.70;99.90
30047;DHT22;16878;52.542;13.426;2022-09-09T06:24:25;22.50;99.90
30047;DHT22;16878;52.542;13.426;2022-09-09T06:26:50;20.80;99.90
30047;DHT22;16878;52.542;13.426;2022-09-09T06:29:16;19.80;99.90
30047;DHT22;16878;52.542;13.426;2022-09-09T06:31:41;19.10;99.90
30047;DHT22;16878;52.542;13.426;2022-09-09T06:34:07;18.60;99.90
30047;DHT22;16878;52.542;13.426;2022-09-09T06:36:34;18.20;99.90
30047;DHT22;16878;52.542;13.426;2022-09-09T06:39:00;17.90;99.90
30047;DHT22;16878;52.542;13.426;2022-09-09T06:41:27;17.70;99.90
30047;DHT22;16878;52.542;13.426;2022-09-09T06:43:53;17.60;99.90
30047;DHT22;16878;52.542;13.426;2022-09-09T06:46:19;17.40;99.90
30047;DHT22;16878;52.542;13.426;2022-09-09T06:48:47;17.40;99.90
30047;DHT22;16878;52.542;13.426;2022-09-09T06:51:16;17.30;99.90
30047;DHT22;16878;52.542;13.426;2022-09-09T06:53:43;17.30;99.90
30047;DHT22;16878;52.542;13.426;2022-09-09T06:58:35;17.50;99.90
30047;DHT22;16878;52.542;13.426;2022-09-09T07:01:02;17.80;99.90
30047;DHT22;16878;52.542;13.426;2022-09-09T07:03:28;18.00;99.90
30047;DHT22;16878;52.542;13.426;2022-09-09T07:05:54;18.20;99.90
30047;DHT22;16878;52.542;13.426;2022-09-09T07:08:21;18.20;99.90
30047;DHT22;16878;52.542;13.426;2022-09-09T07:10:47;18.10;99.90
30047;DHT22;16878;52.542;13.426;2022-09-09T07:13:12;17.90;99.90
30047;DHT22;16878;52.542;13.426;2022-09-09T07:15:41;17.80;99.90
30047;DHT22;16878;52.542;13.426;2022-09-09T07:18:07;17.70;99.90
30047;DHT22;16878;52.542;13.426;2022-09-09T07:20:32;17.60;99.90
30047;DHT22;16878;52.542;13.426;2022-09-09T07:22:58;17.80;99.90
30047;DHT22;16878;52.542;13.426;2022-09-09T07:25:24;17.90;99.90
30047;DHT22;16878;52.542;13.426;2022-09-09T07:27:53;18.20;99.90
30047;DHT22;16878;52.542;13.426;2022-09-09T07:30:20;18.20;99.90
30047;DHT22;16878;52.542;13.426;2022-09-09T07:32:45;18.20;99.90
30047;DHT22;16878;52.542;13.426;2022-09-09T07:35:11;18.10;99.90
30047;DHT22;16878;52.542;13.426;2022-09-09T07:37:37;18.00;99.90
30047;DHT22;16878;52.542;13.426;2022-09-09T07:40:03;17.90;99.90
30047;DHT22;16878;52.542;13.426;2022-09-09T07:42:30;17.90;99.90
30047;DHT22;16878;52.542;13.426;2022-09-09T07:44:55;17.90;99.90
30047;DHT22;16878;52.542;13.426;2022-09-09T07:47:21;17.90;99.90
30047;DHT22;16878;52.542;13.426;2022-09-09T07:49:46;18.00;99.90
30047;DHT22;16878;52.542;13.426;2022-09-09T07:52:15;18.10;99.90
30047;DHT22;16878;52.542;13.426;2022-09-09T07:54:40;18.20;99.90
30047;DHT22;16878;52.542;13.426;2022-09-09T07:57:07;18.30;99.90
30047;DHT22;16878;52.542;13.426;2022-09-09T07:59:32;18.40;99.90
30047;DHT22;16878;52.542;13.426;2022-09-09T08:01:58;18.60;99.90
30047;DHT22;16878;52.542;13.426;2022-09-09T08:04:24;18.80;99.90
30047;DHT22;16878;52.542;13.426;2022-09-09T08:07:00;19.00;99.90
30047;DHT22;16878;52.542;13.426;2022-09-09T08:09:26;19.20;99.90
30047;DHT22;16878;52.542;13.426;2022-09-09T08:11:54;19.20;99.90
30047;DHT22;16878;52.542;13.426;2022-09-09T08:14:21;19.20;99.90
30047;DHT22;16878;52.542;13.426;2022-09-09T08:16:47;19.10;99.90
30047;DHT22;16878;52.542;13.426;2022-09-09T08:19:13;19.10;99.90
30047;DHT22;16878;52.542;13.426;2022-09-09T08:21:40;19.00;99.90
30047;DHT22;16878;52.542;13.426;2022-09-09T08:24:07;18.90;99.90
30047;DHT22;16878;52.542;13.426;2022-09-09T08:26:34;18.80;99.90
30047;DHT22;16878;52.542;13.426;2022-09-09T08:29:00;18.80;99.90
30047;DHT22;16878;52.542;13.426;2022-09-09T08:31:30;18.70;99.90
30047;DHT22;16878;52.542;13.426;2022-09-09T08:33:56;18.70;99.90
30047;DHT22;16878;52.542;13.426;2022-09-09T08:36:25;18.70;99.90
30047;DHT22;16878;52.542;13.426;2022-09-09T08:38:52;18.70;99.90
30047;DHT22;16878;52.542;13.426;2022-09-09T08:41:37;18.80;99.90
30047;DHT22;16878;52.542;13.426;2022-09-09T08:46:56;19.00;99.90
30047;DHT22;16878;52.542;13.426;2022-09-09T08:52:27;19.00;99.90
30047;DHT22;16878;52.542;13.426;2022-09-09T08:54:57;19.00;99.90
30047;DHT22;16878;52.542;13.426;2022-09-09T08:57:25;18.90;99.90
30047;DHT22;16878;52.542;13.426;2022-09-09T08:59:52;19.00;99.90
30047;DHT22;16878;52.542;13.426;2022-09-09T09:02:26;19.10;99.90
30047;DHT22;16878;52.542;13.426;2022-09-09T09:07:28;19.40;99.90
30047;DHT22;16878;52.542;13.426;2022-09-09T09:12:40;19.60;99.90
30047;DHT22;16878;52.542;13.426;2022-09-09T09:15:20;19.80;99.90
30047;DHT22;16878;52.542;13.426;2022-09-09T09:17:48;19.90;99.90
30047;DHT22;16878;52.542;13.426;2022-09-09T09:20:15;20.10;99.90
30047;DHT22;16878;52.542;13.426;2022-09-09T09:22:44;20.30;99.90
30047;DHT22;16878;52.542;13.426;2022-09-09T09:30:17;21.10;99.90
30047;DHT22;16878;52.542;13.426;2022-09-09T09:33:06;21.20;99.90
30047;DHT22;16878;52.542;13.426;2022-09-09T09:35:29;21.30;99.90
30047;DHT22;16878;52.542;13.426;2022-09-09T09:37:54;21.40;99.90
30047;DHT22;16878;52.542;13.426;2022-09-09T09:40:21;21.50;99.90
30047;DHT22;16878;52.542;13.426;2022-09-09T09:43:16;21.50;99.90
30047;DHT22;16878;52.542;13.426;2022-09-09T09:45:40;21.40;99.90
30047;DHT22;16878;52.542;13.426;2022-09-09T09:48:09;21.10;99.90
30047;DHT22;16878;52.542;13.426;2022-09-09T09:50:39;20.90;99.90
30047;DHT22;16878;52.542;13.426;2022-09-09T09:53:06;20.70;99.90
30047;DHT22;16878;52.542;13.426;2022-09-09T09:55:32;20.60;99.90
30047;DHT22;16878;52.542;13.426;2022-09-09T09:58:06;20.40;99.90
30047;DHT22;16878;52.542;13.426;2022-09-09T10:00:32;20.50;99.90
30047;DHT22;16878;52.542;13.426;2022-09-09T10:03:00;20.50;99.90
30047;DHT22;16878;52.542;13.426;2022-09-09T10:05:29;20.50;99.90
30047;DHT22;16878;52.542;13.426;2022-09-09T10:08:05;20.50;99.90
30047;DHT22;16878;52.542;13.426;2022-09-09T10:10:36;20.40;99.90
30047;DHT22;16878;52.542;13.426;2022-09-09T10:13:11;20.40;99.90
30047;DHT22;16878;52.542;13.426;2022-09-09T10:31:17;20.40;99.90
30047;DHT22;16878;52.542;13.426;2022-09-09T10:36:17;20.60;99.90
30047;DHT22;16878;52.542;13.426;2022-09-09T10:38:48;20.60;99.90
30047;DHT22;16878;52.542;13.426;2022-09-09T10:41:36;20.60;99.90
30047;DHT22;16878;52.542;13.426;2022-09-09T10:55:13;21.00;99.90
30047;DHT22;16878;52.542;13.426;2022-09-09T10:57:43;21.00;99.90
30047;DHT22;16878;52.542;13.426;2022-09-09T11:00:23;20.90;99.90
30047;DHT22;16878;52.542;13.426;2022-09-09T11:02:59;20.90;99.90
30047;DHT22;16878;52.542;13.426;2022-09-09T11:05:36;21.00;99.90
30047;DHT22;16878;52.542;13.426;2022-09-09T11:08:06;21.20;99.90
30047;DHT22;16878;52.542;13.426;2022-09-09T11:10:40;21.40;99.90
30047;DHT22;16878;52.542;13.426;2022-09-09T11:13:09;21.40;99.90
30047;DHT22;16878;52.542;13.426;2022-09-09T11:15:39;21.40;99.90
30047;DHT22;16878;52.542;13.426;2022-09-09T11:18:08;21.40;99.90
30047;DHT22;16878;52.542;13.426;2022-09-09T11:20:36;21.30;99.90
30047;DHT22;16878;52.542;13.426;2022-09-09T11:23:03;21.20;99.90
30047;DHT22;16878;52.542;13.426;2022-09-09T11:25:35;21.40;99.90
30047;DHT22;16878;52.542;13.426;2022-09-09T11:28:36;21.40;99.90
30047;DHT22;16878;52.542;13.426;2022-09-09T11:33:47;21.40;99.90
30047;DHT22;16878;52.542;13.426;2022-09-09T11:37:06;21.50;99.90
30047;DHT22;16878;52.542;13.426;2022-09-09T11:39:11;21.60;99.90
30047;DHT22;16878;52.542;13.426;2022-09-09T11:41:43;21.70;99.90
30047;DHT22;16878;52.542;13.426;2022-09-09T11:44:12;21.70;99.90
30047;DHT22;16878;52.542;13.426;2022-09-09T11:46:39;21.80;99.90
30047;DHT22;16878;52.542;13.426;2022-09-09T11:49:21;21.90;99.90
30047;DHT22;16878;52.542;13.426;2022-09-09T11:51:49;21.90;99.90
30047;DHT22;16878;52.542;13.426;2022-09-09T11:54:28;21.80;99.90
30047;DHT22;16878;52.542;13.426;2022-09-09T11:56:54;21.70;99.90
30047;DHT22;16878;52.542;13.426;2022-09-09T11:59:20;21.80;99.90
30047;DHT22;16878;52.542;13.426;2022-09-09T12:01:57;21.80;99.90
30047;DHT22;16878;52.542;13.426;2022-09-09T12:06:50;21.70;99.90
30047;DHT22;16878;52.542;13.426;2022-09-09T12:19:41;21.90;99.90
30047;DHT22;16878;52.542;13.426;2022-09-09T12:22:09;22.00;99.90
30047;DHT22;16878;52.542;13.426;2022-09-09T12:25:00;22.10;99.90
30047;DHT22;16878;52.542;13.426;2022-09-09T12:27:32;22.10;99.90
30047;DHT22;16878;52.542;13.426;2022-09-09T12:32:25;22.10;99.90
30047;DHT22;16878;52.542;13.426;2022-09-09T12:37:31;21.80;99.90
30047;DHT22;16878;52.542;13.426;2022-09-09T12:39:59;21.70;99.90
30047;DHT22;16878;52.542;13.426;2022-09-09T12:42:26;21.60;99.90
30047;DHT22;16878;52.542;13.426;2022-09-09T12:47:17;21.50;99.90
30047;DHT22;16878;52.542;13.426;2022-09-09T12:49:43;21.50;99.90
30047;DHT22;16878;52.542;13.426;2022-09-09T12:52:14;21.60;99.90
30047;DHT22;16878;52.542;13.426;2022-09-09T12:54:44;21.70;99.90
30047;DHT22;16878;52.542;13.426;2022-09-09T12:57:13;21.70;99.90
30047;DHT22;16878;52.542;13.426;2022-09-09T12:59:40;21.80;99.90
30047;DHT22;16878;52.542;13.426;2022-09-09T13:05:18;21.90;99.90
30047;DHT22;16878;52.542;13.426;2022-09-09T13:07:44;22.00;99.90
30047;DHT22;16878;52.542;13.426;2022-09-09T13:10:10;22.10;99.90
30047;DHT22;16878;52.542;13.426;2022-09-09T13:12:36;22.20;99.90
30047;DHT22;16878;52.542;13.426;2022-09-09T13:15:02;22.30;99.90
30047;DHT22;16878;52.542;13.426;2022-09-09T13:17:28;22.40;99.90
30047;DHT22;16878;52.542;13.426;2022-09-09T13:19:54;22.40;99.90
30047;DHT22;16878;52.542;13.426;2022-09-09T13:25:00;22.40;99.90
30047;DHT22;16878;52.542;13.426;2022-09-09T13:27:34;22.40;99.90
30047;DHT22;16878;52.542;13.426;2022-09-09T13:32:59;22.40;99.90
30047;DHT22;16878;52.542;13.426;2022-09-09T13:35:26;22.30;99.90
30047;DHT22;16878;52.542;13.426;2022-09-09T13:37:52;22.30;99.90
30047;DHT22;16878;52.542;13.426;2022-09-09T13:40:19;22.30;99.90
30047;DHT22;16878;52.542;13.426;2022-09-09T13:42:45;22.30;99.90
30047;DHT22;16878;52.542;13.426;2022-09-09T13:45:17;22.30;99.90
30047;DHT22;16878;52.542;13.426;2022-09-09T13:47:45;22.30;99.90
30047;DHT22;16878;52.542;13.426;2022-09-09T13:50:23;22.30;99.90
30047;DHT22;16878;52.542;13.426;2022-09-09T13:52:50;22.40;99.90
30047;DHT22;16878;52.542;13.426;2022-09-09T13:55:18;22.50;99.90
30047;DHT22;16878;52.542;13.426;2022-09-09T13:57:51;22.70;99.90
30047;DHT22;16878;52.542;13.426;2022-09-09T14:00:17;22.70;99.90
30047;DHT22;16878;52.542;13.426;2022-09-09T14:02:42;22.80;99.90
30047;DHT22;16878;52.542;13.426;2022-09-09T14:05:09;22.80;99.90
30047;DHT22;16878;52.542;13.426;2022-09-09T14:07:35;22.80;99.90
30047;DHT22;16878;52.542;13.426;2022-09-09T14:10:01;22.80;99.90
30047;DHT22;16878;52.542;13.426;2022-09-09T14:12:26;22.70;99.90
30047;DHT22;16878;52.542;13.426;2022-09-09T14:14:52;22.60;99.90
30047;DHT22;16878;52.542;13.426;2022-09-09T14:17:18;22.50;99.90
30047;DHT22;16878;52.542;13.426;2022-09-09T14:19:43;22.40;99.90
30047;DHT22;16878;52.542;13.426;2022-09-09T14:22:10;22.40;99.90
30047;DHT22;16878;52.542;13.426;2022-09-09T14:24:36;22.40;99.90
30047;DHT22;16878;52.542;13.426;2022-09-09T14:27:01;22.50;99.90
30047;DHT22;16878;52.542;13.426;2022-09-09T14:29:27;22.80;99.90
30047;DHT22;16878;52.542;13.426;2022-09-09T14:31:52;23.00;99.90
30047;DHT22;16878;52.542;13.426;2022-09-09T14:34:18;23.00;99.90
30047;DHT22;16878;52.542;13.426;2022-09-09T14:36:44;22.90;99.90
30047;DHT22;16878;52.542;13.426;2022-09-09T14:39:27;22.80;99.90
30047;DHT22;16878;52.542;13.426;2022-09-09T14:41:56;22.70;99.90
30047;DHT22;16878;52.542;13.426;2022-09-09T14:44:21;22.60;99.90
30047;DHT22;16878;52.542;13.426;2022-09-09T14:46:47;22.40;99.90
30047;DHT22;16878;52.542;13.426;2022-09-09T14:49:15;22.30;99.90
30047;DHT22;16878;52.542;13.426;2022-09-09T14:51:41;22.10;99.90
30047;DHT22;16878;52.542;13.426;2022-09-09T14:54:15;22.10;99.90
30047;DHT22;16878;52.542;13.426;2022-09-09T14:56:49;22.00;99.90
30047;DHT22;16878;52.542;13.426;2022-09-09T14:59:15;21.90;99.90
30047;DHT22;16878;52.542;13.426;2022-09-09T15:01:41;21.80;99.90
30047;DHT22;16878;52.542;13.426;2022-09-09T15:04:06;21.60;99.90
30047;DHT22;16878;52.542;13.426;2022-09-09T15:06:33;21.50;99.90
30047;DHT22;16878;52.542;13.426;2022-09-09T15:09:00;21.50;99.90
30047;DHT22;16878;52.542;13.426;2022-09-09T15:11:26;21.50;99.90
30047;DHT22;16878;52.542;13.426;2022-09-09T15:13:53;21.60;99.90
30047;DHT22;16878;52.542;13.426;2022-09-09T15:16:31;21.60;99.90
30047;DHT22;16878;52.542;13.426;2022-09-09T15:19:00;21.70;99.90
30047;DHT22;16878;52.542;13.426;2022-09-09T15:21:30;21.80;99.90
30047;DHT22;16878;52.542;13.426;2022-09-09T15:23:56;21.90;99.90
30047;DHT22;16878;52.542;13.426;2022-09-09T15:26:21;22.00;99.90
30047;DHT22;16878;52.542;13.426;2022-09-09T15:28:47;22.10;99.90
30047;DHT22;16878;52.542;13.426;2022-09-09T15:31:22;22.20;99.80
30047;DHT22;16878;52.542;13.426;2022-09-09T15:33:48;22.20;99.40
30047;DHT22;16878;52.542;13.426;2022-09-09T15:36:24;22.20;99.70
30047;DHT22;16878;52.542;13.426;2022-09-09T15:38:50;22.30;99.90
30047;DHT22;16878;52.542;13.426;2022-09-09T15:41:16;22.20;99.90
30047;DHT22;16878;52.542;13.426;2022-09-09T15:43:45;22.20;99.90
30047;DHT22;16878;52.542;13.426;2022-09-09T15:49:28;21.80;99.90
30047;DHT22;16878;52.542;13.426;2022-09-09T15:52:05;21.60;99.90
30047;DHT22;16878;52.542;13.426;2022-09-09T15:54:33;21.40;99.90
30047;DHT22;16878;52.542;13.426;2022-09-09T15:57:00;21.20;99.90
30047;DHT22;16878;52.542;13.426;2022-09-09T15:59:27;21.10;99.90
30047;DHT22;16878;52.542;13.426;2022-09-09T16:01:53;21.00;99.90
30047;DHT22;16878;52.542;13.426;2022-09-09T16:04:20;20.80;99.90
30047;DHT22;16878;52.542;13.426;2022-09-09T16:06:49;20.80;99.90
30047;DHT22;16878;52.542;13.426;2022-09-09T16:09:15;20.80;99.90
30047;DHT22;16878;52.542;13.426;2022-09-09T16:11:41;20.80;99.90
30047;DHT22;16878;52.542;13.426;2022-09-09T16:14:06;21.00;99.90
30047;DHT22;16878;52.542;13.426;2022-09-09T16:16:32;21.10;99.90
30047;DHT22;16878;52.542;13.426;2022-09-09T16:18:58;21.10;99.90
30047;DHT22;16878;52.542;13.426;2022-09-09T16:21:28;21.10;99.90
30047;DHT22;16878;52.542;13.426;2022-09-09T16:23:55;21.10;99.90
30047;DHT22;16878;52.542;13.426;2022-09-09T16:26:21;21.10;99.90
30047;DHT22;16878;52.542;13.426;2022-09-09T16:28:47;21.10;99.90
30047;DHT22;16878;52.542;13.426;2022-09-09T16:31:14;21.10;99.90
30047;DHT22;16878;52.542;13.426;2022-09-09T16:33:40;21.00;99.90
30047;DHT22;16878;52.542;13.426;2022-09-09T16:36:06;21.00;99.90
30047;DHT22;16878;52.542;13.426;2022-09-09T16:38:32;21.00;99.90
30047;DHT22;16878;52.542;13.426;2022-09-09T16:40:59;21.00;99.90
30047;DHT22;16878;52.542;13.426;2022-09-09T16:43:25;20.90;99.90
30047;DHT22;16878;52.542;13.426;2022-09-09T16:45:50;20.90;99.90
30047;DHT22;16878;52.542;13.426;2022-09-09T16:48:16;20.80;99.90
30047;DHT22;16878;52.542;13.426;2022-09-09T16:50:41;20.90;99.90
30047;DHT22;16878;52.542;13.426;2022-09-09T16:53:07;20.80;99.90
30047;DHT22;16878;52.542;13.426;2022-09-09T16:55:37;20.70;99.90
30047;DHT22;16878;52.542;13.426;2022-09-09T16:58:03;20.70;99.90
30047;DHT22;16878;52.542;13.426;2022-09-09T17:00:29;20.60;99.90
30047;DHT22;16878;52.542;13.426;2022-09-09T17:02:54;20.50;99.90
30047;DHT22;16878;52.542;13.426;2022-09-09T17:05:20;20.50;99.90
30047;DHT22;16878;52.542;13.426;2022-09-09T17:07:45;20.40;99.90
30047;DHT22;16878;52.542;13.426;2022-09-09T17:10:11;20.40;99.90
30047;DHT22;16878;52.542;13.426;2022-09-09T17:12:36;20.40;99.90
30047;DHT22;16878;52.542;13.426;2022-09-09T17:15:02;20.40;99.90
30047;DHT22;16878;52.542;13.426;2022-09-09T17:17:28;20.40;99.90